sensor_id;sensor_type;location;lat;lon;timestamp;pressure;altitude;pressure_sealevel;temperature;humidity
49945;BME280;35838;49.134;9.212;2023-02-28T00:01:10;100738.38;;;0.77;58.08
49945;BME280;35838;49.134;9.212;2023-02-28T00:02:44;100739.66;;;0.69;57.78
49945;BME280;35838;49.134;9.212;2023-02-28T00:04:17;100732.97;;;0.71;58.00
49945;BME280;35838;49.134;9.212;2023-02-28T00:05:51;100738.38;;;0.77;58.33
49945;BME280;35838;49.134;9.212;2023-02-28T00:07:22;100733.31;;;0.60;58.21
49945;BME280;35838;49.134;9.212;2023-02-28T00:08:56;100735.13;;;0.63;58.56
49945;BME280;35838;49.134;9.212;2023-02-28T00:10:30;100736.09;;;0.65;58.70
49945;BME280;35838;49.134;9.212;2023-02-28T00:12:04;100741.53;;;0.55;58.46
49945;BME280;35838;49.134;9.212;2023-02-28T00:13:41;100739.16;;;0.58;58.80
49945;BME280;35838;49.134;9.212;2023-02-28T00:15:17;100736.09;;;0.65;58.78
49945;BME280;35838;49.134;9.212;2023-02-28T00:16:52;100729.22;;;0.64;58.56
49945;BME280;35838;49.134;9.212;2023-02-28T00:18:25;100735.91;;;0.62;58.46
49945;BME280;35838;49.134;9.212;2023-02-28T00:19:59;100730.75;;;0.60;58.79
49945;BME280;35838;49.134;9.212;2023-02-28T00:21:42;100733.00;;;0.54;59.13
49945;BME280;35838;49.134;9.212;2023-02-28T00:23:15;100733.06;;;0.56;59.09
49945;BME280;35838;49.134;9.212;2023-02-28T00:24:49;100730.38;;;0.53;59.13
49945;BME280;35838;49.134;9.212;2023-02-28T00:26:23;100739.47;;;0.47;59.30
49945;BME280;35838;49.134;9.212;2023-02-28T00:27:59;100733.00;;;0.54;58.97
49945;BME280;35838;49.134;9.212;2023-02-28T00:29:32;100733.47;;;0.64;59.20
49945;BME280;35838;49.134;9.212;2023-02-28T00:31:06;100736.88;;;0.64;58.99
49945;BME280;35838;49.134;9.212;2023-02-28T00:32:40;100734.75;;;0.55;59.20
49945;BME280;35838;49.134;9.212;2023-02-28T00:34:11;100738.13;;;0.54;59.06
49945;BME280;35838;49.134;9.212;2023-02-28T00:35:44;100735.03;;;0.43;59.16
49945;BME280;35838;49.134;9.212;2023-02-28T00:37:19;100737.59;;;0.43;59.56
49945;BME280;35838;49.134;9.212;2023-02-28T00:38:50;100735.97;;;0.45;59.64
49945;BME280;35838;49.134;9.212;2023-02-28T00:40:23;100739.47;;;0.47;59.58
49945;BME280;35838;49.134;9.212;2023-02-28T00:41:57;100734.38;;;0.47;59.85
49945;BME280;35838;49.134;9.212;2023-02-28T00:43:31;100733.88;;;0.55;59.87
49945;BME280;35838;49.134;9.212;2023-02-28T00:45:05;100729.66;;;0.55;59.89
49945;BME280;35838;49.134;9.212;2023-02-28T00:46:36;100734.91;;;0.58;59.67
49945;BME280;35838;49.134;9.212;2023-02-28T00:48:10;100737.22;;;0.54;59.43
49945;BME280;35838;49.134;9.212;2023-02-28T00:49:43;100728.84;;;0.56;59.43
49945;BME280;35838;49.134;9.212;2023-02-28T00:51:17;100733.00;;;0.54;59.37
49945;BME280;35838;49.134;9.212;2023-02-28T00:52:51;100733.41;;;0.45;59.93
49945;BME280;35838;49.134;9.212;2023-02-28T00:54:24;100727.44;;;0.45;60.12
49945;BME280;35838;49.134;9.212;2023-02-28T00:55:58;100728.16;;;0.42;59.87
49945;BME280;35838;49.134;9.212;2023-02-28T00:57:32;100731.28;;;0.37;60.38
49945;BME280;35838;49.134;9.212;2023-02-28T00:59:08;100729.75;;;0.40;60.19
49945;BME280;35838;49.134;9.212;2023-02-28T01:00:42;100736.63;;;0.41;60.00
49945;BME280;35838;49.134;9.212;2023-02-28T01:02:19;100732.31;;;0.40;59.89
49945;BME280;35838;49.134;9.212;2023-02-28T01:03:53;100728.66;;;0.35;60.01
49945;BME280;35838;49.134;9.212;2023-02-28T01:05:24;100729.53;;;0.36;60.31
49945;BME280;35838;49.134;9.212;2023-02-28T01:06:57;100735.50;;;0.36;60.13
49945;BME280;35838;49.134;9.212;2023-02-28T01:08:28;100728.88;;;0.40;60.30
49945;BME280;35838;49.134;9.212;2023-02-28T01:10:02;100723.63;;;0.37;60.74
49945;BME280;35838;49.134;9.212;2023-02-28T01:11:36;100733.84;;;0.37;60.60
49945;BME280;35838;49.134;9.212;2023-02-28T01:13:12;100728.44;;;0.30;60.96
49945;BME280;35838;49.134;9.212;2023-02-28T01:14:48;100729.78;;;0.24;61.29
49945;BME280;35838;49.134;9.212;2023-02-28T01:16:22;100740.25;;;0.28;61.36
49945;BME280;35838;49.134;9.212;2023-02-28T01:17:53;100736.72;;;0.26;60.95
49945;BME280;35838;49.134;9.212;2023-02-28T01:19:27;100742.00;;;0.29;61.25
49945;BME280;35838;49.134;9.212;2023-02-28T01:21:03;100732.34;;;0.24;61.41
49945;BME280;35838;49.134;9.212;2023-02-28T01:22:36;100738.19;;;0.21;61.37
49945;BME280;35838;49.134;9.212;2023-02-28T01:24:10;100730.28;;;0.17;61.58
49945;BME280;35838;49.134;9.212;2023-02-28T01:25:44;100733.06;;;0.21;61.83
49945;BME280;35838;49.134;9.212;2023-02-28T01:27:17;100732.34;;;0.24;61.87
49945;BME280;35838;49.134;9.212;2023-02-28T01:28:51;100731.06;;;0.32;61.41
49945;BME280;35838;49.134;9.212;2023-02-28T01:30:28;100732.81;;;0.33;61.33
49945;BME280;35838;49.134;9.212;2023-02-28T01:32:01;100731.78;;;0.29;61.20
49945;BME280;35838;49.134;9.212;2023-02-28T01:33:35;100727.47;;;0.28;61.36
49945;BME280;35838;49.134;9.212;2023-02-28T01:35:09;100724.97;;;0.30;61.28
49945;BME280;35838;49.134;9.212;2023-02-28T01:36:42;100725.72;;;0.27;61.44
49945;BME280;35838;49.134;9.212;2023-02-28T01:38:16;100734.22;;;0.28;61.28
49945;BME280;35838;49.134;9.212;2023-02-28T01:39:50;100728.66;;;0.19;61.15
49945;BME280;35838;49.134;9.212;2023-02-28T01:41:24;100731.31;;;0.20;61.43
49945;BME280;35838;49.134;9.212;2023-02-28T01:42:59;100722.84;;;0.21;61.49
49945;BME280;35838;49.134;9.212;2023-02-28T01:46:23;100730.88;;;0.29;61.49
49945;BME280;35838;49.134;9.212;2023-02-28T01:47:58;100725.66;;;0.26;61.42
49945;BME280;35838;49.134;9.212;2023-02-28T01:49:33;100727.53;;;0.30;61.27
49945;BME280;35838;49.134;9.212;2023-02-28T01:51:08;100720.44;;;0.24;61.22
49945;BME280;35838;49.134;9.212;2023-02-28T01:52:44;100718.84;;;0.26;61.15
49945;BME280;35838;49.134;9.212;2023-02-28T01:54:20;100725.31;;;0.20;61.49
49945;BME280;35838;49.134;9.212;2023-02-28T01:55:55;100722.53;;;0.15;61.65
49945;BME280;35838;49.134;9.212;2023-02-28T01:57:28;100717.34;;;0.13;61.66
49945;BME280;35838;49.134;9.212;2023-02-28T01:59:07;100716.63;;;0.16;61.75
49945;BME280;35838;49.134;9.212;2023-02-28T02:00:41;100712.41;;;0.17;61.61
49945;BME280;35838;49.134;9.212;2023-02-28T02:02:18;100718.56;;;0.04;61.59
49945;BME280;35838;49.134;9.212;2023-02-28T02:03:54;100710.25;;;0.08;61.84
49945;BME280;35838;49.134;9.212;2023-02-28T02:05:29;100718.94;;;0.11;61.99
49945;BME280;35838;49.134;9.212;2023-02-28T02:07:05;100712.63;;;0.05;61.94
49945;BME280;35838;49.134;9.212;2023-02-28T02:08:38;100711.13;;;0.08;61.63
49945;BME280;35838;49.134;9.212;2023-02-28T02:10:13;100718.38;;;0.01;61.97
49945;BME280;35838;49.134;9.212;2023-02-28T02:11:47;100710.06;;;0.05;61.97
49945;BME280;35838;49.134;9.212;2023-02-28T02:13:27;100711.78;;;0.04;62.03
49945;BME280;35838;49.134;9.212;2023-02-28T02:15:04;100705.78;;;0.04;61.90
49945;BME280;35838;49.134;9.212;2023-02-28T02:16:46;100711.69;;;0.03;61.82
49945;BME280;35838;49.134;9.212;2023-02-28T02:18:29;100706.81;;;0.07;62.09
49945;BME280;35838;49.134;9.212;2023-02-28T02:21:56;100709.03;;;0.01;61.85
49945;BME280;35838;49.134;9.212;2023-02-28T02:25:36;100699.72;;;0.02;62.38
49945;BME280;35838;49.134;9.212;2023-02-28T02:27:22;100700.59;;;0.02;62.19
49945;BME280;35838;49.134;9.212;2023-02-28T02:29:05;100702.22;;;0.00;62.61
49945;BME280;35838;49.134;9.212;2023-02-28T02:30:54;100700.69;;;0.04;62.42
49945;BME280;35838;49.134;9.212;2023-02-28T02:32:42;100704.97;;;0.05;62.35
49945;BME280;35838;49.134;9.212;2023-02-28T02:34:28;100694.63;;;0.02;62.47
49945;BME280;35838;49.134;9.212;2023-02-28T02:36:07;100700.53;;;0.01;62.62
49945;BME280;35838;49.134;9.212;2023-02-28T02:37:47;100697.81;;;-0.03;62.71
49945;BME280;35838;49.134;9.212;2023-02-28T02:39:23;100695.25;;;-0.03;62.52
49945;BME280;35838;49.134;9.212;2023-02-28T02:41:02;100695.00;;;-0.07;62.58
49945;BME280;35838;49.134;9.212;2023-02-28T02:42:39;100691.84;;;-0.03;62.59
49945;BME280;35838;49.134;9.212;2023-02-28T02:44:15;100693.84;;;-0.14;62.47
49945;BME280;35838;49.134;9.212;2023-02-28T02:45:52;100697.50;;;-0.09;62.54
49945;BME280;35838;49.134;9.212;2023-02-28T02:47:29;100698.34;;;-0.08;62.55
49945;BME280;35838;49.134;9.212;2023-02-28T02:49:05;100690.63;;;-0.10;62.85
49945;BME280;35838;49.134;9.212;2023-02-28T02:50:41;100695.81;;;-0.08;62.64
49945;BME280;35838;49.134;9.212;2023-02-28T02:52:16;100700.03;;;-0.09;62.78
49945;BME280;35838;49.134;9.212;2023-02-28T02:53:52;100701.50;;;-0.14;62.82
49945;BME280;35838;49.134;9.212;2023-02-28T02:55:28;100705.47;;;-0.19;62.70
49945;BME280;35838;49.134;9.212;2023-02-28T02:57:05;100698.78;;;-0.17;62.70
49945;BME280;35838;49.134;9.212;2023-02-28T02:58:38;100705.53;;;-0.18;63.08
49945;BME280;35838;49.134;9.212;2023-02-28T03:00:14;100701.50;;;-0.14;63.22
49945;BME280;35838;49.134;9.212;2023-02-28T03:01:46;100692.16;;;-0.13;63.08
49945;BME280;35838;49.134;9.212;2023-02-28T03:03:22;100710.97;;;-0.11;63.00
49945;BME280;35838;49.134;9.212;2023-02-28T03:04:59;100707.41;;;-0.15;63.12
49945;BME280;35838;49.134;9.212;2023-02-28T03:06:34;100699.88;;;-0.12;62.78
49945;BME280;35838;49.134;9.212;2023-02-28T03:08:08;100692.22;;;-0.12;63.04
49945;BME280;35838;49.134;9.212;2023-02-28T03:09:49;100696.47;;;-0.12;63.00
49945;BME280;35838;49.134;9.212;2023-02-28T03:11:23;100698.47;;;-0.07;62.91
49945;BME280;35838;49.134;9.212;2023-02-28T03:13:00;100691.59;;;-0.08;62.67
49945;BME280;35838;49.134;9.212;2023-02-28T03:14:40;100690.63;;;-0.10;62.54
49945;BME280;35838;49.134;9.212;2023-02-28T03:16:32;100684.75;;;-0.09;62.26
49945;BME280;35838;49.134;9.212;2023-02-28T03:18:04;100688.97;;;-0.09;62.65
49945;BME280;35838;49.134;9.212;2023-02-28T03:19:47;100690.00;;;-0.06;62.74
49945;BME280;35838;49.134;9.212;2023-02-28T03:21:27;100684.81;;;-0.07;63.27
49945;BME280;35838;49.134;9.212;2023-02-28T03:23:08;100683.28;;;-0.04;63.38
49945;BME280;35838;49.134;9.212;2023-02-28T03:24:45;100686.97;;;0.02;62.97
49945;BME280;35838;49.134;9.212;2023-02-28T03:26:23;100693.09;;;0.05;63.01
49945;BME280;35838;49.134;9.212;2023-02-28T03:28:00;100688.84;;;0.06;62.83
49945;BME280;35838;49.134;9.212;2023-02-28T03:29:33;100688.06;;;0.07;63.09
49945;BME280;35838;49.134;9.212;2023-02-28T03:31:10;100689.81;;;0.08;62.78
49945;BME280;35838;49.134;9.212;2023-02-28T03:32:48;100695.09;;;0.11;62.65
49945;BME280;35838;49.134;9.212;2023-02-28T03:34:25;100685.91;;;0.14;63.01
49945;BME280;35838;49.134;9.212;2023-02-28T03:36:02;100687.75;;;0.17;62.64
49945;BME280;35838;49.134;9.212;2023-02-28T03:37:38;100688.63;;;0.18;62.81
49945;BME280;35838;49.134;9.212;2023-02-28T03:39:17;100685.03;;;0.14;62.70
49945;BME280;35838;49.134;9.212;2023-02-28T03:40:55;100694.59;;;0.18;62.70
49945;BME280;35838;49.134;9.212;2023-02-28T03:42:32;100690.78;;;0.10;62.75
49945;BME280;35838;49.134;9.212;2023-02-28T03:44:09;100688.84;;;0.22;62.71
49945;BME280;35838;49.134;9.212;2023-02-28T03:45:45;100684.06;;;0.28;62.49
49945;BME280;35838;49.134;9.212;2023-02-28T03:47:20;100685.94;;;0.33;61.96
49945;BME280;35838;49.134;9.212;2023-02-28T03:48:55;100691.94;;;0.33;62.34
49945;BME280;35838;49.134;9.212;2023-02-28T03:50:32;100692.69;;;0.30;62.49
49945;BME280;35838;49.134;9.212;2023-02-28T03:52:05;100697.91;;;0.34;62.57
49945;BME280;35838;49.134;9.212;2023-02-28T03:53:41;100702.97;;;0.32;62.10
49945;BME280;35838;49.134;9.212;2023-02-28T03:55:18;100699.50;;;0.31;62.11
49945;BME280;35838;49.134;9.212;2023-02-28T03:56:53;100695.06;;;0.27;61.67
49945;BME280;35838;49.134;9.212;2023-02-28T03:58:32;100691.63;;;0.27;61.50
49945;BME280;35838;49.134;9.212;2023-02-28T04:00:10;100699.03;;;0.22;62.14
49945;BME280;35838;49.134;9.212;2023-02-28T04:01:46;100693.31;;;0.26;62.26
49945;BME280;35838;49.134;9.212;2023-02-28T04:03:20;100696.81;;;0.28;62.18
49945;BME280;35838;49.134;9.212;2023-02-28T04:04:54;100700.97;;;0.26;62.52
49945;BME280;35838;49.134;9.212;2023-02-28T04:06:27;100699.78;;;0.20;62.58
49945;BME280;35838;49.134;9.212;2023-02-28T04:08:04;100703.53;;;0.26;62.06
49945;BME280;35838;49.134;9.212;2023-02-28T04:09:38;100701.75;;;0.25;61.99
49945;BME280;35838;49.134;9.212;2023-02-28T04:11:18;100699.16;;;0.24;62.11
49945;BME280;35838;49.134;9.212;2023-02-28T04:12:50;100702.44;;;0.21;62.73
49945;BME280;35838;49.134;9.212;2023-02-28T04:14:24;100704.50;;;0.28;62.24
49945;BME280;35838;49.134;9.212;2023-02-28T04:15:55;100701.06;;;0.11;62.43
49945;BME280;35838;49.134;9.212;2023-02-28T04:17:29;100703.28;;;0.22;62.14
49945;BME280;35838;49.134;9.212;2023-02-28T04:19:00;100707.66;;;0.24;61.95
49945;BME280;35838;49.134;9.212;2023-02-28T04:20:35;100706.81;;;0.24;62.37
49945;BME280;35838;49.134;9.212;2023-02-28T04:22:09;100698.91;;;0.19;62.20
49945;BME280;35838;49.134;9.212;2023-02-28T04:23:44;100699.22;;;0.25;62.35
49945;BME280;35838;49.134;9.212;2023-02-28T04:25:17;100696.72;;;0.27;62.40
49945;BME280;35838;49.134;9.212;2023-02-28T04:26:54;100702.56;;;0.24;62.88
49945;BME280;35838;49.134;9.212;2023-02-28T04:28:28;100694.19;;;0.27;62.69
49945;BME280;35838;49.134;9.212;2023-02-28T04:29:59;100705.28;;;0.27;62.33
49945;BME280;35838;49.134;9.212;2023-02-28T04:31:33;100695.88;;;0.26;62.26
49945;BME280;35838;49.134;9.212;2023-02-28T04:33:04;100697.94;;;0.17;62.86
49945;BME280;35838;49.134;9.212;2023-02-28T04:34:38;100697.63;;;0.27;62.75
49945;BME280;35838;49.134;9.212;2023-02-28T04:36:09;100696.03;;;0.29;62.56
49945;BME280;35838;49.134;9.212;2023-02-28T04:37:43;100702.16;;;0.33;62.44
49945;BME280;35838;49.134;9.212;2023-02-28T04:39:17;100692.09;;;0.36;62.28
49945;BME280;35838;49.134;9.212;2023-02-28T04:40:51;100696.09;;;0.31;62.09
49945;BME280;35838;49.134;9.212;2023-02-28T04:42:27;100698.72;;;0.33;61.95
49945;BME280;35838;49.134;9.212;2023-02-28T04:44:05;100698.47;;;0.28;61.99
49945;BME280;35838;49.134;9.212;2023-02-28T04:45:39;100703.47;;;0.25;62.00
49945;BME280;35838;49.134;9.212;2023-02-28T04:47:13;100700.69;;;0.04;61.47
49945;BME280;35838;49.134;9.212;2023-02-28T04:48:46;100698.13;;;-0.13;62.20
49945;BME280;35838;49.134;9.212;2023-02-28T04:50:17;100704.97;;;-0.28;62.40
49945;BME280;35838;49.134;9.212;2023-02-28T04:51:51;100711.22;;;-0.23;62.88
49945;BME280;35838;49.134;9.212;2023-02-28T04:53:26;100700.53;;;-0.16;62.79
49945;BME280;35838;49.134;9.212;2023-02-28T04:54:57;100702.91;;;-0.03;62.62
49945;BME280;35838;49.134;9.212;2023-02-28T04:56:31;100702.78;;;-0.06;62.38
49945;BME280;35838;49.134;9.212;2023-02-28T04:58:05;100710.19;;;-0.10;62.84
49945;BME280;35838;49.134;9.212;2023-02-28T04:59:39;100705.47;;;-0.03;62.91
49945;BME280;35838;49.134;9.212;2023-02-28T05:01:17;100713.28;;;0.01;63.28
49945;BME280;35838;49.134;9.212;2023-02-28T05:02:51;100704.97;;;0.05;63.12
49945;BME280;35838;49.134;9.212;2023-02-28T05:04:24;100707.69;;;0.08;62.41
49945;BME280;35838;49.134;9.212;2023-02-28T05:05:58;100708.50;;;0.07;62.81
49945;BME280;35838;49.134;9.212;2023-02-28T05:07:29;100711.13;;;0.08;62.22
49945;BME280;35838;49.134;9.212;2023-02-28T05:09:02;100698.44;;;0.10;63.04
49945;BME280;35838;49.134;9.212;2023-02-28T05:10:36;100704.88;;;0.20;63.13
49945;BME280;35838;49.134;9.212;2023-02-28T05:12:10;100702.09;;;0.15;62.94
49945;BME280;35838;49.134;9.212;2023-02-28T05:13:46;100702.09;;;0.15;63.26
49945;BME280;35838;49.134;9.212;2023-02-28T05:15:17;100702.03;;;0.13;62.91
49945;BME280;35838;49.134;9.212;2023-02-28T05:16:51;100704.56;;;0.13;62.69
49945;BME280;35838;49.134;9.212;2023-02-28T05:18:25;100710.25;;;0.08;62.63
49945;BME280;35838;49.134;9.212;2023-02-28T05:19:56;100707.69;;;0.08;62.54
49945;BME280;35838;49.134;9.212;2023-02-28T05:21:30;100706.34;;;0.14;62.79
49945;BME280;35838;49.134;9.212;2023-02-28T05:23:04;100708.81;;;0.13;63.17
49945;BME280;35838;49.134;9.212;2023-02-28T05:24:35;100708.16;;;0.17;62.81
49945;BME280;35838;49.134;9.212;2023-02-28T05:26:09;100703.47;;;0.08;62.32
49945;BME280;35838;49.134;9.212;2023-02-28T05:27:40;100707.06;;;0.12;62.32
49945;BME280;35838;49.134;9.212;2023-02-28T05:29:16;100707.69;;;0.08;62.26
49945;BME280;35838;49.134;9.212;2023-02-28T05:30:50;100708.19;;;0.01;62.89
49945;BME280;35838;49.134;9.212;2023-02-28T05:32:24;100714.31;;;0.04;62.66
49945;BME280;35838;49.134;9.212;2023-02-28T05:33:57;100704.97;;;0.05;62.28
49945;BME280;35838;49.134;9.212;2023-02-28T05:35:31;100706.81;;;0.07;62.79
49945;BME280;35838;49.134;9.212;2023-02-28T05:37:05;100715.34;;;0.08;62.13
49945;BME280;35838;49.134;9.212;2023-02-28T05:38:39;100717.91;;;-0.09;62.42
49945;BME280;35838;49.134;9.212;2023-02-28T05:40:12;100718.69;;;-0.43;62.89
49945;BME280;35838;49.134;9.212;2023-02-28T05:41:46;100717.19;;;-0.39;63.39
49945;BME280;35838;49.134;9.212;2023-02-28T05:43:20;100714.41;;;-0.27;63.55
49945;BME280;35838;49.134;9.212;2023-02-28T05:44:53;100721.44;;;-0.23;63.87
49945;BME280;35838;49.134;9.212;2023-02-28T05:46:27;100719.97;;;-0.18;64.12
49945;BME280;35838;49.134;9.212;2023-02-28T05:48:00;100721.25;;;-0.10;63.60
49945;BME280;35838;49.134;9.212;2023-02-28T05:49:34;100714.56;;;-0.08;63.06
49945;BME280;35838;49.134;9.212;2023-02-28T05:51:08;100724.94;;;-0.05;63.04
49945;BME280;35838;49.134;9.212;2023-02-28T05:52:41;100723.66;;;0.04;63.04
49945;BME280;35838;49.134;9.212;2023-02-28T05:54:15;100718.88;;;0.10;62.65
49945;BME280;35838;49.134;9.212;2023-02-28T05:55:49;100713.59;;;0.07;62.42
49945;BME280;35838;49.134;9.212;2023-02-28T05:57:23;100717.28;;;0.12;62.89
49945;BME280;35838;49.134;9.212;2023-02-28T05:58:56;100721.72;;;0.16;62.67
49945;BME280;35838;49.134;9.212;2023-02-28T06:00:32;100719.91;;;0.13;62.75
49945;BME280;35838;49.134;9.212;2023-02-28T06:02:06;100731.31;;;0.20;62.21
49945;BME280;35838;49.134;9.212;2023-02-28T06:03:44;100726.94;;;0.18;62.28
49945;BME280;35838;49.134;9.212;2023-02-28T06:05:17;100721.72;;;0.16;62.25
49945;BME280;35838;49.134;9.212;2023-02-28T06:06:51;100723.25;;;0.12;62.05
49945;BME280;35838;49.134;9.212;2023-02-28T06:08:24;100727.78;;;0.18;62.03
49945;BME280;35838;49.134;9.212;2023-02-28T06:09:58;100713.03;;;0.12;62.38
49945;BME280;35838;49.134;9.212;2023-02-28T06:11:32;100727.63;;;0.15;62.61
49945;BME280;35838;49.134;9.212;2023-02-28T06:13:06;100730.66;;;0.08;62.62
49945;BME280;35838;49.134;9.212;2023-02-28T06:14:39;100726.03;;;0.17;62.99
49945;BME280;35838;49.134;9.212;2023-02-28T06:16:15;100725.31;;;0.20;62.68
49945;BME280;35838;49.134;9.212;2023-02-28T06:17:49;100722.03;;;0.22;62.74
49945;BME280;35838;49.134;9.212;2023-02-28T06:19:23;100724.59;;;0.22;62.81
49945;BME280;35838;49.134;9.212;2023-02-28T06:20:56;100731.16;;;0.17;61.84
49945;BME280;35838;49.134;9.212;2023-02-28T06:22:29;100728.41;;;0.14;62.00
49945;BME280;35838;49.134;9.212;2023-02-28T06:24:03;100734.34;;;0.13;62.43
49945;BME280;35838;49.134;9.212;2023-02-28T06:25:37;100723.97;;;0.10;62.18
49945;BME280;35838;49.134;9.212;2023-02-28T06:27:10;100731.16;;;0.17;63.07
49945;BME280;35838;49.134;9.212;2023-02-28T06:28:44;100725.25;;;0.18;63.23
49945;BME280;35838;49.134;9.212;2023-02-28T06:30:18;100731.47;;;-0.10;62.02
49945;BME280;35838;49.134;9.212;2023-02-28T06:31:56;100742.63;;;-0.08;62.46
49945;BME280;35838;49.134;9.212;2023-02-28T06:33:30;100740.41;;;-0.02;62.89
49945;BME280;35838;49.134;9.212;2023-02-28T06:35:04;100744.22;;;0.07;63.14
49945;BME280;35838;49.134;9.212;2023-02-28T06:36:38;100744.31;;;0.08;62.98
49945;BME280;35838;49.134;9.212;2023-02-28T06:38:12;100747.25;;;0.16;63.04
49945;BME280;35838;49.134;9.212;2023-02-28T06:39:45;100744.06;;;0.20;62.49
49945;BME280;35838;49.134;9.212;2023-02-28T06:41:19;100749.09;;;0.19;62.60
49945;BME280;35838;49.134;9.212;2023-02-28T06:42:52;100752.13;;;0.11;62.63
49945;BME280;35838;49.134;9.212;2023-02-28T06:44:23;100753.25;;;0.17;62.45
49945;BME280;35838;49.134;9.212;2023-02-28T06:45:58;100751.63;;;0.19;62.75
49945;BME280;35838;49.134;9.212;2023-02-28T06:47:34;100758.13;;;0.12;62.48
49945;BME280;35838;49.134;9.212;2023-02-28T06:49:08;100759.88;;;0.13;62.52
49945;BME280;35838;49.134;9.212;2023-02-28T06:50:42;100757.41;;;0.14;62.73
49945;BME280;35838;49.134;9.212;2023-02-28T06:52:16;100765.00;;;0.13;62.96
49945;BME280;35838;49.134;9.212;2023-02-28T06:53:49;100767.06;;;0.20;62.45
49945;BME280;35838;49.134;9.212;2023-02-28T06:55:23;100767.13;;;0.22;62.15
49945;BME280;35838;49.134;9.212;2023-02-28T06:56:57;100761.03;;;0.36;62.28
49945;BME280;35838;49.134;9.212;2023-02-28T06:58:30;100764.31;;;0.34;62.44
49945;BME280;35838;49.134;9.212;2023-02-28T07:00:05;100761.13;;;0.38;62.09
49945;BME280;35838;49.134;9.212;2023-02-28T07:01:40;100764.97;;;0.46;62.26
49945;BME280;35838;49.134;9.212;2023-02-28T07:03:16;100771.97;;;0.50;62.23
49945;BME280;35838;49.134;9.212;2023-02-28T07:04:50;100771.88;;;0.49;61.93
49945;BME280;35838;49.134;9.212;2023-02-28T07:06:24;100770.13;;;0.47;61.59
49945;BME280;35838;49.134;9.212;2023-02-28T07:07:57;100763.38;;;0.48;61.36
49945;BME280;35838;49.134;9.212;2023-02-28T07:09:31;100776.13;;;0.48;61.65
49945;BME280;35838;49.134;9.212;2023-02-28T07:11:05;100775.31;;;0.49;61.71
49945;BME280;35838;49.134;9.212;2023-02-28T07:12:38;100770.38;;;0.36;60.91
49945;BME280;35838;49.134;9.212;2023-02-28T07:14:12;100784.13;;;0.21;61.53
49945;BME280;35838;49.134;9.212;2023-02-28T07:15:52;100781.25;;;0.15;62.01
49945;BME280;35838;49.134;9.212;2023-02-28T07:17:25;100783.31;;;0.22;61.99
49945;BME280;35838;49.134;9.212;2023-02-28T07:19:02;100781.25;;;0.15;62.11
49945;BME280;35838;49.134;9.212;2023-02-28T07:20:35;100789.38;;;0.24;61.87
49945;BME280;35838;49.134;9.212;2023-02-28T07:22:09;100786.03;;;0.25;61.82
49945;BME280;35838;49.134;9.212;2023-02-28T07:23:43;100786.59;;;0.20;61.96
49945;BME280;35838;49.134;9.212;2023-02-28T07:25:16;100782.38;;;0.37;62.00
49945;BME280;35838;49.134;9.212;2023-02-28T07:26:50;100779.38;;;0.45;61.75
49945;BME280;35838;49.134;9.212;2023-02-28T07:28:24;100778.19;;;0.55;61.60
49945;BME280;35838;49.134;9.212;2023-02-28T07:29:57;100783.63;;;0.45;61.29
49945;BME280;35838;49.134;9.212;2023-02-28T07:31:32;100786.13;;;0.43;61.17
49945;BME280;35838;49.134;9.212;2023-02-28T07:33:05;100779.00;;;0.54;61.13
49945;BME280;35838;49.134;9.212;2023-02-28T07:34:42;100781.06;;;0.61;61.52
49945;BME280;35838;49.134;9.212;2023-02-28T07:36:16;100781.88;;;0.44;61.55
49945;BME280;35838;49.134;9.212;2023-02-28T07:37:50;100784.09;;;0.54;61.49
49945;BME280;35838;49.134;9.212;2023-02-28T07:39:23;100775.41;;;0.51;61.20
49945;BME280;35838;49.134;9.212;2023-02-28T07:40:57;100784.22;;;0.57;61.19
49945;BME280;35838;49.134;9.212;2023-02-28T07:42:31;100786.66;;;0.54;61.56
49945;BME280;35838;49.134;9.212;2023-02-28T07:44:04;100782.00;;;0.64;60.92
49945;BME280;35838;49.134;9.212;2023-02-28T07:45:38;100785.88;;;0.73;61.05
49945;BME280;35838;49.134;9.212;2023-02-28T07:47:12;100789.06;;;0.86;61.18
49945;BME280;35838;49.134;9.212;2023-02-28T07:48:45;100787.47;;;0.88;61.01
49945;BME280;35838;49.134;9.212;2023-02-28T07:50:21;100785.94;;;0.91;60.20
49945;BME280;35838;49.134;9.212;2023-02-28T07:51:55;100782.59;;;0.76;60.10
49945;BME280;35838;49.134;9.212;2023-02-28T07:53:29;100779.97;;;0.74;60.94
49945;BME280;35838;49.134;9.212;2023-02-28T07:55:03;100787.94;;;0.81;60.55
49945;BME280;35838;49.134;9.212;2023-02-28T07:56:37;100789.13;;;0.87;60.86
49945;BME280;35838;49.134;9.212;2023-02-28T07:58:11;100787.38;;;0.86;60.89
49945;BME280;35838;49.134;9.212;2023-02-28T07:59:44;100791.34;;;0.98;60.99
49945;BME280;35838;49.134;9.212;2023-02-28T08:01:18;100791.56;;;1.02;60.45
49945;BME280;35838;49.134;9.212;2023-02-28T08:02:52;100782.09;;;1.00;60.64
49945;BME280;35838;49.134;9.212;2023-02-28T08:04:26;100790.91;;;1.06;60.59
49945;BME280;35838;49.134;9.212;2023-02-28T08:06:02;100784.94;;;1.06;60.01
49945;BME280;35838;49.134;9.212;2023-02-28T08:07:36;100785.09;;;1.09;59.93
49945;BME280;35838;49.134;9.212;2023-02-28T08:09:10;100782.66;;;1.12;60.75
49945;BME280;35838;49.134;9.212;2023-02-28T08:10:43;100788.22;;;1.21;60.98
49945;BME280;35838;49.134;9.212;2023-02-28T08:12:17;100796.50;;;1.34;60.10
49945;BME280;35838;49.134;9.212;2023-02-28T08:13:50;100789.47;;;1.30;59.96
49945;BME280;35838;49.134;9.212;2023-02-28T08:15:24;100790.22;;;1.45;59.55
49945;BME280;35838;49.134;9.212;2023-02-28T08:16:57;100791.94;;;1.46;59.45
49945;BME280;35838;49.134;9.212;2023-02-28T08:18:32;100792.25;;;1.52;59.79
49945;BME280;35838;49.134;9.212;2023-02-28T08:20:07;100785.50;;;1.54;59.51
49945;BME280;35838;49.134;9.212;2023-02-28T08:21:43;100791.66;;;1.58;59.46
49945;BME280;35838;49.134;9.212;2023-02-28T08:23:17;100786.59;;;1.60;59.28
49945;BME280;35838;49.134;9.212;2023-02-28T08:24:50;100787.88;;;1.50;59.93
49945;BME280;35838;49.134;9.212;2023-02-28T08:26:24;100786.31;;;1.53;59.48